createdAt,value
2023-02-14T00:01:31.229Z,21.5
2023-02-14T00:04:33.226Z,20
2023-02-14T00:07:35.147Z,21.2
2023-02-14T00:10:37.122Z,22.2
2023-02-14T00:13:39.111Z,21.7
2023-02-14T00:16:41.043Z,25.6
2023-02-14T00:19:42.998Z,22.4
2023-02-14T00:22:44.981Z,23.5
2023-02-14T00:25:46.932Z,25.2
2023-02-14T00:28:48.905Z,24.8
2023-02-14T00:31:50.889Z,21.8
2023-02-14T00:34:52.803Z,25.8
2023-02-14T00:37:54.768Z,27.4
2023-02-14T00:40:56.949Z,22.2
2023-02-14T00:43:58.717Z,25.4
2023-02-14T00:47:00.704Z,24
2023-02-14T00:50:02.639Z,25.2
2023-02-14T00:53:04.628Z,25.2
2023-02-14T00:56:06.643Z,25.3
2023-02-14T00:59:08.587Z,23.9
2023-02-14T01:02:10.531Z,27.6
2023-02-14T01:05:12.488Z,21.2
2023-02-14T01:08:14.449Z,24.8
2023-02-14T01:11:16.416Z,25.7
2023-02-14T01:14:18.425Z,23.9
2023-02-14T01:17:20.389Z,26.7
2023-02-14T01:20:22.374Z,24.5
2023-02-14T01:23:24.286Z,23.3
2023-02-14T01:26:26.238Z,28
2023-02-14T01:29:28.204Z,24.9
2023-02-14T01:32:30.189Z,27.2
2023-02-14T01:35:32.161Z,28.8
2023-02-14T01:38:34.153Z,29.5
2023-02-14T01:41:36.089Z,24.8
2023-02-14T01:44:38.050Z,29.3
2023-02-14T01:47:40.030Z,29.1
2023-02-14T01:50:41.969Z,27.3
2023-02-14T01:53:43.956Z,28.3
2023-02-14T01:56:45.926Z,30.5
2023-02-14T01:59:47.902Z,25.7
2023-02-14T02:02:49.829Z,27.9
2023-02-14T02:05:51.783Z,27.1
2023-02-14T02:08:53.751Z,27.6
2023-02-14T02:11:55.709Z,26.6
2023-02-14T02:14:57.675Z,25.7
2023-02-14T02:17:59.652Z,27.9
2023-02-14T02:21:01.847Z,26.5
2023-02-14T02:24:03.538Z,25.6
2023-02-14T02:27:06.729Z,26.1
2023-02-14T02:30:07.482Z,28
2023-02-14T02:33:09.410Z,27.7
2023-02-14T02:36:11.409Z,29.4
2023-02-14T02:39:13.340Z,27
2023-02-14T02:42:15.311Z,27.5
2023-02-14T02:45:17.270Z,28.3
2023-02-14T02:48:19.208Z,29
2023-02-14T02:51:21.165Z,28
2023-02-14T02:54:23.137Z,30.5
2023-02-14T02:57:25.080Z,30.7
2023-02-14T03:00:27.051Z,31.7
2023-02-14T03:03:29.001Z,30
2023-02-14T03:06:31.218Z,32.4
2023-02-14T03:09:32.923Z,33.8
2023-02-14T03:12:34.922Z,29.6
2023-02-14T03:15:36.882Z,34.8
2023-02-14T03:18:38.818Z,28.3
2023-02-14T03:21:40.760Z,35.7
2023-02-14T03:24:42.730Z,31.5
2023-02-14T03:27:44.699Z,27.1
2023-02-14T03:30:46.753Z,34.5
2023-02-14T03:33:48.626Z,36.1
2023-02-14T03:36:50.607Z,33.5
2023-02-14T03:39:52.533Z,36.1
2023-02-14T03:42:54.493Z,31.4
2023-02-14T03:45:56.465Z,34.1
2023-02-14T03:48:58.452Z,36.3
2023-02-14T03:52:00.423Z,29.1
2023-02-14T03:55:02.415Z,33.5
2023-02-14T03:58:04.358Z,32.6
2023-02-14T04:01:06.345Z,30.1
2023-02-14T04:04:08.288Z,34
2023-02-14T04:07:10.258Z,35.8
2023-02-14T04:10:12.171Z,29.6
2023-02-14T04:13:14.127Z,36
2023-02-14T04:16:16.160Z,30.6
2023-02-14T04:19:18.051Z,31.4
2023-02-14T04:22:20.002Z,28.6
2023-02-14T04:25:21.972Z,34.4
2023-02-14T04:28:23.924Z,35.9
2023-02-14T04:31:26.016Z,30.7
2023-02-14T04:34:27.873Z,33.4
2023-02-14T04:37:29.821Z,33.8
2023-02-14T04:40:31.837Z,30.5
2023-02-14T04:43:33.740Z,30.8
2023-02-14T04:46:35.768Z,30.3
2023-02-14T04:49:37.670Z,26.2
2023-02-14T04:52:39.613Z,31.3
2023-02-14T04:55:41.576Z,29.5
2023-02-14T04:58:43.566Z,30.1
2023-02-14T05:01:45.527Z,33.5
2023-02-14T05:04:49.649Z,34.3
2023-02-14T05:07:49.414Z,31.9
2023-02-14T05:10:51.376Z,34.6
2023-02-14T05:13:53.324Z,30.8
2023-02-14T05:16:55.291Z,33
2023-02-14T05:19:57.242Z,31.5
2023-02-14T05:22:59.223Z,35.3
2023-02-14T05:26:01.214Z,29.5
2023-02-14T05:29:03.166Z,36.7
2023-02-14T05:32:05.204Z,36.6
2023-02-14T05:35:07.128Z,44.1
2023-02-14T05:38:09.042Z,44.1
2023-02-14T05:41:11.063Z,45.2
2023-02-14T05:44:12.985Z,46.5
2023-02-14T05:47:14.965Z,54.5
2023-02-14T05:50:16.907Z,52.6
2023-02-14T05:53:18.884Z,51
2023-02-14T05:56:20.878Z,44.5
2023-02-14T05:59:22.823Z,48.3
2023-02-14T06:02:24.835Z,57
2023-02-14T06:05:26.733Z,46.9
2023-02-14T06:08:28.683Z,47.3
2023-02-14T06:11:30.659Z,45.8
2023-02-14T06:14:32.604Z,42.6
2023-02-14T06:17:34.581Z,49
2023-02-14T06:20:36.517Z,48.8
2023-02-14T06:23:38.480Z,44.7
2023-02-14T06:26:40.431Z,39.4
2023-02-14T06:29:42.398Z,44.1
2023-02-14T06:32:44.351Z,43
2023-02-14T06:35:46.319Z,42.3
2023-02-14T06:38:48.278Z,47.6
2023-02-14T06:41:50.257Z,39.1
2023-02-14T06:44:52.253Z,36.9
2023-02-14T06:47:54.212Z,36.7
2023-02-14T06:50:56.149Z,40
2023-02-14T06:53:58.125Z,45.8
2023-02-14T06:57:00.095Z,40.4
2023-02-14T07:00:02.286Z,39
2023-02-14T07:03:04.096Z,42.6
2023-02-14T07:06:06.035Z,40.8
2023-02-14T07:09:08.009Z,40.3
2023-02-14T07:12:09.952Z,36.9
2023-02-14T07:15:11.909Z,34.5
2023-02-14T07:18:13.895Z,28.9
2023-02-14T07:21:15.854Z,33.3
2023-02-14T07:24:17.803Z,33.9
2023-02-14T07:27:19.778Z,32.3
2023-02-14T07:30:21.815Z,29
2023-02-14T07:33:23.736Z,28.1
2023-02-14T07:36:25.654Z,33.7
2023-02-14T07:39:27.614Z,25.9
2023-02-14T07:42:29.580Z,22.7
2023-02-14T07:45:31.560Z,26.6
2023-02-14T07:48:34.426Z,24.7
2023-02-14T07:51:35.587Z,27.9
2023-02-14T07:54:37.525Z,29.2
2023-02-14T07:57:39.486Z,27.5
2023-02-14T08:00:41.455Z,26.4
2023-02-14T08:03:43.427Z,28.4
2023-02-14T08:06:45.365Z,28.9
2023-02-14T08:09:47.335Z,27.9
2023-02-14T08:12:49.299Z,23.5
2023-02-14T08:15:51.314Z,25.2
2023-02-14T08:18:53.268Z,30.5
2023-02-14T08:21:55.260Z,24.2
2023-02-14T08:24:57.182Z,27.9
2023-02-14T08:27:59.146Z,27.6
2023-02-14T08:31:01.525Z,27
2023-02-14T08:34:03.083Z,29.5
2023-02-14T08:37:05.062Z,25.1
2023-02-14T08:40:07.050Z,28.3
2023-02-14T08:43:08.973Z,24.7
2023-02-14T08:46:11.009Z,26.2
2023-02-14T08:49:12.923Z,24.7
2023-02-14T08:52:14.877Z,24.4
2023-02-14T08:55:16.867Z,28.6
2023-02-14T08:58:18.801Z,22.6
2023-02-14T09:01:20.910Z,24
2023-02-14T09:04:22.768Z,31.7
2023-02-14T09:07:24.755Z,28.3
2023-02-14T09:10:26.789Z,29.3
2023-02-14T09:13:28.739Z,26.4
2023-02-14T09:16:30.627Z,27.6
2023-02-14T09:19:32.544Z,31.1
2023-02-14T09:22:34.512Z,22.4
2023-02-14T09:25:36.499Z,29
2023-02-14T09:28:38.439Z,21.1
2023-02-14T09:31:40.444Z,32
2023-02-14T09:34:42.348Z,26.8
2023-02-14T09:37:44.298Z,25.7
2023-02-14T09:40:46.299Z,25.8
2023-02-14T09:43:48.269Z,21.3
2023-02-14T09:46:50.197Z,21.8
2023-02-14T09:49:52.260Z,24.5
2023-02-14T09:52:54.123Z,22.7
2023-02-14T09:55:56.141Z,28.8
2023-02-14T09:58:58.043Z,21.7
2023-02-14T10:02:00.030Z,25.1
2023-02-14T10:05:01.988Z,25.5
2023-02-14T10:08:03.938Z,24
2023-02-14T10:11:05.928Z,24.6
2023-02-14T10:14:07.913Z,21
2023-02-14T10:17:09.848Z,22.8
2023-02-14T10:20:11.867Z,26.5
2023-02-14T10:23:13.755Z,24.4
2023-02-14T10:26:15.716Z,24.3
2023-02-14T10:29:17.737Z,25.6
2023-02-14T10:32:19.682Z,24.5
2023-02-14T10:35:21.618Z,25.1
2023-02-14T10:38:23.580Z,26.7
2023-02-14T10:41:25.522Z,22.8
2023-02-14T10:44:27.488Z,29.5
2023-02-14T10:47:29.435Z,28.3
2023-02-14T10:50:31.416Z,26.8
2023-02-14T10:53:33.367Z,30.8
2023-02-14T10:56:35.358Z,35.5
2023-02-14T10:59:37.330Z,33.6
2023-02-14T11:02:39.262Z,26.4
2023-02-14T11:05:41.227Z,25.7
2023-02-14T11:08:43.172Z,24.9
2023-02-14T11:11:45.136Z,23.1
2023-02-14T11:14:47.106Z,27.1
2023-02-14T11:17:49.079Z,27.3
2023-02-14T11:20:51.020Z,27.4
2023-02-14T11:23:52.985Z,29.8
2023-02-14T11:26:54.932Z,29.7
2023-02-14T11:29:57.089Z,31.2
2023-02-14T11:32:58.885Z,29.9
2023-02-14T11:36:00.815Z,30.1
2023-02-14T11:39:02.812Z,29.5
2023-02-14T11:42:04.758Z,29.9
2023-02-14T11:45:06.709Z,31.3
2023-02-14T11:48:08.706Z,32.1
2023-02-14T11:51:10.642Z,29.2
2023-02-14T11:54:12.598Z,27.9
2023-02-14T11:57:14.572Z,30.6
2023-02-14T12:00:16.590Z,29.6
2023-02-14T12:03:18.575Z,31.1
2023-02-14T12:06:20.470Z,35.5
2023-02-14T12:09:22.432Z,31.3
2023-02-14T12:12:24.408Z,33.7
2023-02-14T12:15:26.424Z,29.9
2023-02-14T12:18:28.340Z,28.8
2023-02-14T12:21:30.306Z,27
2023-02-14T12:24:32.290Z,26.1
2023-02-14T12:27:35.653Z,32.6
2023-02-14T12:30:36.249Z,28.4
2023-02-14T12:33:38.201Z,29.3
2023-02-14T12:36:40.177Z,34.4
2023-02-14T12:39:42.092Z,30.3
2023-02-14T12:42:44.050Z,31.9
2023-02-14T12:45:48.039Z,31.1
2023-02-14T12:48:47.972Z,29
2023-02-14T12:51:49.949Z,32.7
2023-02-14T12:54:51.906Z,30.3
2023-02-14T12:57:53.904Z,29.6
2023-02-14T13:00:55.869Z,35.5
2023-02-14T13:03:57.822Z,28
2023-02-14T13:06:59.788Z,34.6
2023-02-14T13:10:01.779Z,32.5
2023-02-14T13:13:03.707Z,33.3
2023-02-14T13:16:05.698Z,31.2
2023-02-14T13:19:07.644Z,29.5
2023-02-14T13:22:09.652Z,29.4
2023-02-14T13:25:11.564Z,30.4
2023-02-14T13:28:13.528Z,27.3
2023-02-14T13:31:15.610Z,29.6
2023-02-14T13:34:17.437Z,33
2023-02-14T13:37:19.392Z,31.2
2023-02-14T13:40:21.372Z,29.3
2023-02-14T13:43:23.337Z,31
2023-02-14T13:46:25.351Z,27.8
2023-02-14T13:49:27.258Z,30.1
2023-02-14T13:52:29.447Z,34.1
2023-02-14T13:55:31.572Z,34.4
2023-02-14T13:58:33.154Z,32.7
2023-02-14T14:01:35.116Z,34.1
2023-02-14T14:04:37.123Z,31.3
2023-02-14T14:07:39.132Z,35.8
2023-02-14T14:10:41.032Z,32.5
2023-02-14T14:13:42.950Z,32.6
2023-02-14T14:16:44.955Z,29.3
2023-02-14T14:19:47.191Z,33.3
2023-02-14T14:22:48.853Z,32
2023-02-14T14:25:50.841Z,27.2
2023-02-14T14:28:52.800Z,34.1
2023-02-14T14:31:54.797Z,31.8
2023-02-14T14:34:56.715Z,36.4
2023-02-14T14:37:58.684Z,36.5
2023-02-14T14:41:00.651Z,30.9
2023-02-14T14:44:02.639Z,33.2
2023-02-14T14:47:04.590Z,37.1
2023-02-14T14:50:06.549Z,30.7
2023-02-14T14:53:08.528Z,30.8
2023-02-14T14:56:10.492Z,29.9
2023-02-14T14:59:12.449Z,32.3
2023-02-14T15:02:14.409Z,30.3
2023-02-14T15:05:16.380Z,32.7
2023-02-14T15:08:18.341Z,31.9
2023-02-14T15:11:20.304Z,32.2
2023-02-14T15:14:22.256Z,35.9
2023-02-14T15:17:24.208Z,31.4
2023-02-14T15:20:26.173Z,34.9
2023-02-14T15:23:28.186Z,36.9
2023-02-14T15:26:30.114Z,37.6
2023-02-14T15:29:32.048Z,38.5
2023-02-14T15:32:34.012Z,39.9
2023-02-14T15:35:35.965Z,34.7
2023-02-14T15:38:37.929Z,34.7
2023-02-14T15:41:39.912Z,39.8
2023-02-14T15:44:41.886Z,37.3
2023-02-14T15:47:43.804Z,40.5
2023-02-14T15:50:45.770Z,36.9
2023-02-14T15:53:47.734Z,39.2
2023-02-14T15:56:49.688Z,42
2023-02-14T15:59:51.640Z,42.9
2023-02-14T16:02:53.717Z,40.8
2023-02-14T16:05:55.658Z,44.3
2023-02-14T16:08:57.685Z,37.7
2023-02-14T16:11:59.502Z,43.2
2023-02-14T16:15:01.466Z,44.9
2023-02-14T16:18:03.503Z,39.9
2023-02-14T16:21:05.417Z,42.8
2023-02-14T16:24:07.412Z,46.3
2023-02-14T16:27:09.358Z,45.3
2023-02-14T16:30:11.362Z,42.6
2023-02-14T16:33:13.324Z,49.4
2023-02-14T16:36:15.255Z,52.1
2023-02-14T16:39:17.207Z,49.3
2023-02-14T16:42:19.240Z,43.5
2023-02-14T16:45:21.165Z,55
2023-02-14T16:48:23.084Z,47.1
2023-02-14T16:51:25.086Z,52.9
2023-02-14T16:54:27.025Z,46.9
2023-02-14T16:57:28.984Z,48.6
2023-02-14T17:00:30.941Z,52.3
2023-02-14T17:03:32.906Z,53.7
2023-02-14T17:06:34.847Z,59.7
2023-02-14T17:09:36.813Z,53.6
2023-02-14T17:12:38.767Z,54.6
2023-02-14T17:15:40.922Z,44.6
2023-02-14T17:18:42.729Z,48.2
2023-02-14T17:21:44.694Z,54.7
2023-02-14T17:24:46.620Z,62.2
2023-02-14T17:27:48.580Z,62.8
2023-02-14T17:30:50.586Z,52.6
2023-02-14T17:33:52.526Z,65
2023-02-14T17:36:54.485Z,57.3
2023-02-14T17:39:56.429Z,51.4
2023-02-14T17:42:58.370Z,54.8
2023-02-14T17:46:00.373Z,57.8
2023-02-14T17:49:02.321Z,56.8
2023-02-14T17:52:04.264Z,63
2023-02-14T17:55:06.199Z,58.8
2023-02-14T17:58:08.191Z,63.5
2023-02-14T18:01:10.154Z,57.9
2023-02-14T18:04:12.109Z,62.1
2023-02-14T18:07:14.104Z,63.6
2023-02-14T18:10:16.069Z,55.6
2023-02-14T18:13:18.041Z,54.9
2023-02-14T18:16:20.087Z,51.7
2023-02-14T18:19:21.959Z,50.7
2023-02-14T18:22:23.896Z,48.5
2023-02-14T18:25:25.832Z,47.7
2023-02-14T18:28:27.812Z,44
2023-02-14T18:31:29.810Z,40.2
2023-02-14T18:34:31.725Z,38.4
2023-02-14T18:37:33.683Z,40.8
2023-02-14T18:40:35.634Z,41.4
2023-02-14T18:43:37.595Z,38.6
2023-02-14T18:46:39.571Z,44.6
2023-02-14T18:49:41.554Z,35.5
2023-02-14T18:52:43.502Z,43.5
2023-02-14T18:55:45.479Z,40.3
2023-02-14T18:58:47.414Z,41.8
2023-02-14T19:01:49.393Z,41.1
2023-02-14T19:04:51.338Z,38.5
2023-02-14T19:07:53.304Z,36.9
2023-02-14T19:10:55.311Z,41.6
2023-02-14T19:13:57.247Z,41.3
2023-02-14T19:16:59.482Z,49.4
2023-02-14T19:20:01.147Z,39.8
2023-02-14T19:23:03.126Z,43.4
2023-02-14T19:26:06.053Z,43.8
2023-02-14T19:29:07.044Z,38.9
2023-02-14T19:32:09.067Z,45.1
2023-02-14T19:35:10.967Z,36.3
2023-02-14T19:38:12.979Z,41
2023-02-14T19:41:14.942Z,39.4
2023-02-14T19:44:16.863Z,43.2
2023-02-14T19:47:28.904Z,47.9
2023-02-14T19:50:22.039Z,37.4
2023-02-14T19:53:22.754Z,37.8
2023-02-14T19:56:24.713Z,44.7
2023-02-14T19:59:26.664Z,42.5
2023-02-14T20:02:28.680Z,47.5
2023-02-14T20:05:30.600Z,39.1
2023-02-14T20:08:32.555Z,45.7
2023-02-14T20:11:34.508Z,45.5
2023-02-14T20:14:50.070Z,48.9
2023-02-14T20:17:38.442Z,44
2023-02-14T20:20:40.452Z,40.8
2023-02-14T20:23:42.355Z,44.5
2023-02-14T20:26:44.354Z,43.9
2023-02-14T20:29:46.317Z,38.5
2023-02-14T20:32:48.268Z,48.7
2023-02-14T20:35:50.235Z,42.8
2023-02-14T20:38:52.227Z,51.9
2023-02-14T20:41:54.182Z,46.7
2023-02-14T20:44:56.120Z,55.1
2023-02-14T20:47:58.055Z,54.7
2023-02-14T20:51:00.263Z,49.7
2023-02-14T20:54:01.958Z,52.4
2023-02-14T20:57:03.939Z,59.2
2023-02-14T21:00:05.905Z,62.2
2023-02-14T21:03:07.857Z,64
2023-02-14T21:06:09.815Z,51
2023-02-14T21:09:11.801Z,55.3
2023-02-14T21:12:13.780Z,58.2
2023-02-14T21:15:15.739Z,63.7
2023-02-14T21:18:17.709Z,59.1
2023-02-14T21:21:19.641Z,53
2023-02-14T21:24:21.545Z,57.8
2023-02-14T21:27:23.529Z,57.5
2023-02-14T21:30:25.545Z,60.8
2023-02-14T21:33:27.457Z,52.8
2023-02-14T21:36:29.462Z,55.5
2023-02-14T21:39:31.385Z,56
2023-02-14T21:42:33.322Z,61.5
2023-02-14T21:45:35.327Z,62.4
2023-02-14T21:48:37.230Z,51.4
2023-02-14T21:51:39.261Z,56.4
2023-02-14T21:54:41.196Z,55.6
2023-02-14T21:57:43.150Z,62.7
2023-02-14T22:00:45.066Z,58.2
2023-02-14T22:03:47.039Z,62.7
2023-02-14T22:06:49.030Z,55.9
2023-02-14T22:09:50.995Z,67.2
2023-02-14T22:12:52.904Z,64.8
2023-02-14T22:15:54.974Z,69.6
2023-02-14T22:18:56.813Z,63.6
2023-02-14T22:21:58.817Z,57.8
2023-02-14T22:25:00.963Z,57.4
2023-02-14T22:28:02.713Z,67.5
2023-02-14T22:31:04.948Z,48.7
2023-02-14T22:34:06.630Z,55.6
2023-02-14T22:37:08.578Z,49.5
2023-02-14T22:40:10.538Z,55.8
2023-02-14T22:43:12.495Z,61.7
2023-02-14T22:46:14.515Z,53.3
2023-02-14T22:49:16.411Z,48.2
2023-02-14T22:52:18.410Z,53.8
2023-02-14T22:55:20.327Z,59.5
2023-02-14T22:58:22.297Z,52.4
2023-02-14T23:01:24.365Z,55.4
2023-02-14T23:04:26.244Z,55.5
2023-02-14T23:07:28.185Z,49.2
2023-02-14T23:10:30.125Z,53.4
2023-02-14T23:13:32.070Z,58.4
2023-02-14T23:16:34.059Z,54.5
2023-02-14T23:19:35.990Z,57.3
2023-02-14T23:22:37.959Z,62.6
2023-02-14T23:25:39.915Z,52.6
2023-02-14T23:28:41.877Z,45.1
2023-02-14T23:31:43.945Z,45.7
2023-02-14T23:34:45.830Z,59.7
2023-02-14T23:37:47.775Z,45.2
2023-02-14T23:40:49.748Z,51.9
2023-02-14T23:43:51.696Z,44.3
2023-02-14T23:46:53.654Z,47.8
2023-02-14T23:49:55.601Z,56.7
2023-02-14T23:52:57.597Z,49.1
2023-02-14T23:55:59.806Z,53.9
2023-02-14T23:59:01.483Z,49.6
